sensor_id;sensor_type;location;lat;lon;timestamp;temperature;humidity
39103;DHT22;24847;48.218;16.414;2023-05-07T00:00:29;14.90;99.90
39103;DHT22;24847;48.218;16.414;2023-05-07T00:05:31;14.80;99.90
39103;DHT22;24847;48.218;16.414;2023-05-07T00:10:35;14.60;99.90
39103;DHT22;24847;48.218;16.414;2023-05-07T00:15:38;14.60;99.90
39103;DHT22;24847;48.218;16.414;2023-05-07T00:20:40;14.60;99.90
39103;DHT22;24847;48.218;16.414;2023-05-07T00:25:44;14.30;99.90
39103;DHT22;24847;48.218;16.414;2023-05-07T00:30:46;14.60;99.90
39103;DHT22;24847;48.218;16.414;2023-05-07T00:35:48;14.60;99.90
39103;DHT22;24847;48.218;16.414;2023-05-07T00:40:52;14.90;99.90
39103;DHT22;24847;48.218;16.414;2023-05-07T00:45:54;15.00;99.90
39103;DHT22;24847;48.218;16.414;2023-05-07T00:50:57;15.20;99.90
39103;DHT22;24847;48.218;16.414;2023-05-07T00:56:01;15.00;99.90
39103;DHT22;24847;48.218;16.414;2023-05-07T01:01:03;14.70;99.90
39103;DHT22;24847;48.218;16.414;2023-05-07T01:06:07;14.50;99.90
39103;DHT22;24847;48.218;16.414;2023-05-07T01:11:11;14.40;99.90
39103;DHT22;24847;48.218;16.414;2023-05-07T01:16:14;14.40;99.90
39103;DHT22;24847;48.218;16.414;2023-05-07T01:21:17;14.70;99.90
39103;DHT22;24847;48.218;16.414;2023-05-07T01:26:22;14.50;99.90
39103;DHT22;24847;48.218;16.414;2023-05-07T01:31:24;14.70;99.90
39103;DHT22;24847;48.218;16.414;2023-05-07T01:36:28;14.40;99.90
39103;DHT22;24847;48.218;16.414;2023-05-07T01:41:32;14.40;99.90
39103;DHT22;24847;48.218;16.414;2023-05-07T01:46:35;14.50;99.90
39103;DHT22;24847;48.218;16.414;2023-05-07T01:51:37;14.70;99.90
39103;DHT22;24847;48.218;16.414;2023-05-07T01:56:41;14.70;99.90
39103;DHT22;24847;48.218;16.414;2023-05-07T02:01:45;14.50;99.90
39103;DHT22;24847;48.218;16.414;2023-05-07T02:06:48;14.70;99.90
39103;DHT22;24847;48.218;16.414;2023-05-07T02:11:52;14.40;99.90
39103;DHT22;24847;48.218;16.414;2023-05-07T02:16:54;14.30;99.90
39103;DHT22;24847;48.218;16.414;2023-05-07T02:21:56;14.40;99.90
39103;DHT22;24847;48.218;16.414;2023-05-07T02:27:00;14.50;99.90
39103;DHT22;24847;48.218;16.414;2023-05-07T02:32:03;14.80;99.90
39103;DHT22;24847;48.218;16.414;2023-05-07T02:37:05;14.50;99.90
39103;DHT22;24847;48.218;16.414;2023-05-07T02:42:09;14.40;99.90
39103;DHT22;24847;48.218;16.414;2023-05-07T02:47:13;14.20;99.90
39103;DHT22;24847;48.218;16.414;2023-05-07T02:52:16;14.10;99.90
39103;DHT22;24847;48.218;16.414;2023-05-07T02:57:19;14.10;99.90
39103;DHT22;24847;48.218;16.414;2023-05-07T03:02:22;14.30;99.90
39103;DHT22;24847;48.218;16.414;2023-05-07T03:07:24;14.20;99.90
39103;DHT22;24847;48.218;16.414;2023-05-07T03:12:27;13.90;99.90
39103;DHT22;24847;48.218;16.414;2023-05-07T03:17:29;13.90;99.90
39103;DHT22;24847;48.218;16.414;2023-05-07T03:22:32;13.70;99.90
39103;DHT22;24847;48.218;16.414;2023-05-07T03:27:35;13.80;99.90
39103;DHT22;24847;48.218;16.414;2023-05-07T03:32:37;13.70;99.90
39103;DHT22;24847;48.218;16.414;2023-05-07T03:37:40;13.60;99.90
39103;DHT22;24847;48.218;16.414;2023-05-07T03:42:44;13.80;99.90
39103;DHT22;24847;48.218;16.414;2023-05-07T03:47:46;13.80;99.90
39103;DHT22;24847;48.218;16.414;2023-05-07T03:52:48;13.70;99.90
39103;DHT22;24847;48.218;16.414;2023-05-07T03:57:52;13.50;99.90
39103;DHT22;24847;48.218;16.414;2023-05-07T04:02:54;13.40;99.90
39103;DHT22;24847;48.218;16.414;2023-05-07T04:07:57;13.60;99.90
39103;DHT22;24847;48.218;16.414;2023-05-07T04:13:01;13.70;99.90
39103;DHT22;24847;48.218;16.414;2023-05-07T04:18:03;13.60;99.90
39103;DHT22;24847;48.218;16.414;2023-05-07T04:23:05;13.90;99.90
39103;DHT22;24847;48.218;16.414;2023-05-07T04:28:09;13.70;99.90
39103;DHT22;24847;48.218;16.414;2023-05-07T04:33:13;13.70;99.90
39103;DHT22;24847;48.218;16.414;2023-05-07T04:38:17;13.90;99.90
39103;DHT22;24847;48.218;16.414;2023-05-07T04:43:21;13.80;99.90
39103;DHT22;24847;48.218;16.414;2023-05-07T04:48:23;13.90;99.90
39103;DHT22;24847;48.218;16.414;2023-05-07T04:53:25;14.00;99.90
39103;DHT22;24847;48.218;16.414;2023-05-07T04:58:29;14.00;99.90
39103;DHT22;24847;48.218;16.414;2023-05-07T05:03:32;14.00;99.90
39103;DHT22;24847;48.218;16.414;2023-05-07T05:08:34;14.10;99.90
39103;DHT22;24847;48.218;16.414;2023-05-07T05:13:38;14.00;99.90
39103;DHT22;24847;48.218;16.414;2023-05-07T05:18:40;14.10;99.90
39103;DHT22;24847;48.218;16.414;2023-05-07T05:23:43;14.20;99.90
39103;DHT22;24847;48.218;16.414;2023-05-07T05:28:47;14.10;99.90
39103;DHT22;24847;48.218;16.414;2023-05-07T05:33:49;14.10;99.90
39103;DHT22;24847;48.218;16.414;2023-05-07T05:38:51;14.40;99.90
39103;DHT22;24847;48.218;16.414;2023-05-07T05:43:55;14.20;99.90
39103;DHT22;24847;48.218;16.414;2023-05-07T05:48:57;14.50;99.90
39103;DHT22;24847;48.218;16.414;2023-05-07T05:53:59;14.90;99.90
39103;DHT22;24847;48.218;16.414;2023-05-07T05:59:03;15.40;99.90
39103;DHT22;24847;48.218;16.414;2023-05-07T06:04:05;15.50;99.90
39103;DHT22;24847;48.218;16.414;2023-05-07T06:09:08;15.10;99.90
39103;DHT22;24847;48.218;16.414;2023-05-07T06:14:11;15.10;99.90
39103;DHT22;24847;48.218;16.414;2023-05-07T06:19:13;15.00;99.90
39103;DHT22;24847;48.218;16.414;2023-05-07T06:24:18;15.40;99.90
39103;DHT22;24847;48.218;16.414;2023-05-07T06:29:22;15.70;99.90
39103;DHT22;24847;48.218;16.414;2023-05-07T06:34:26;15.40;99.90
39103;DHT22;24847;48.218;16.414;2023-05-07T06:39:28;15.70;99.90
39103;DHT22;24847;48.218;16.414;2023-05-07T06:44:32;16.10;99.90
39103;DHT22;24847;48.218;16.414;2023-05-07T06:49:34;18.00;99.90
39103;DHT22;24847;48.218;16.414;2023-05-07T06:54:36;17.20;99.90
39103;DHT22;24847;48.218;16.414;2023-05-07T06:59:40;17.60;99.90
39103;DHT22;24847;48.218;16.414;2023-05-07T07:04:42;16.60;99.90
39103;DHT22;24847;48.218;16.414;2023-05-07T07:09:45;16.10;99.90
39103;DHT22;24847;48.218;16.414;2023-05-07T07:14:49;16.20;99.90
39103;DHT22;24847;48.218;16.414;2023-05-07T07:19:51;15.90;99.90
39103;DHT22;24847;48.218;16.414;2023-05-07T07:24:53;15.70;99.90
39103;DHT22;24847;48.218;16.414;2023-05-07T07:29:57;15.50;99.90
39103;DHT22;24847;48.218;16.414;2023-05-07T07:34:59;15.90;99.90
39103;DHT22;24847;48.218;16.414;2023-05-07T07:40:02;15.50;99.90
39103;DHT22;24847;48.218;16.414;2023-05-07T07:45:08;15.40;99.90
39103;DHT22;24847;48.218;16.414;2023-05-07T07:50:12;15.00;99.90
39103;DHT22;24847;48.218;16.414;2023-05-07T07:55:15;15.10;99.90
39103;DHT22;24847;48.218;16.414;2023-05-07T08:00:23;15.30;99.90
39103;DHT22;24847;48.218;16.414;2023-05-07T08:05:26;15.70;99.90
39103;DHT22;24847;48.218;16.414;2023-05-07T08:10:29;15.50;99.90
39103;DHT22;24847;48.218;16.414;2023-05-07T08:15:35;15.60;99.90
39103;DHT22;24847;48.218;16.414;2023-05-07T08:20:38;15.60;99.90
39103;DHT22;24847;48.218;16.414;2023-05-07T08:25:42;15.80;99.90
39103;DHT22;24847;48.218;16.414;2023-05-07T08:30:45;16.00;99.90
39103;DHT22;24847;48.218;16.414;2023-05-07T08:35:47;16.80;99.90
39103;DHT22;24847;48.218;16.414;2023-05-07T08:40:50;17.80;99.90
39103;DHT22;24847;48.218;16.414;2023-05-07T08:45:54;17.50;99.90
39103;DHT22;24847;48.218;16.414;2023-05-07T08:50:57;17.30;99.90
39103;DHT22;24847;48.218;16.414;2023-05-07T08:56:00;17.50;99.90
39103;DHT22;24847;48.218;16.414;2023-05-07T09:01:12;17.10;99.90
39103;DHT22;24847;48.218;16.414;2023-05-07T09:06:15;16.80;99.90
39103;DHT22;24847;48.218;16.414;2023-05-07T09:11:20;16.70;99.90
39103;DHT22;24847;48.218;16.414;2023-05-07T09:16:25;16.70;99.90
39103;DHT22;24847;48.218;16.414;2023-05-07T09:21:27;17.60;99.90
39103;DHT22;24847;48.218;16.414;2023-05-07T09:26:30;19.20;99.90
39103;DHT22;24847;48.218;16.414;2023-05-07T09:31:37;20.00;99.90
39103;DHT22;24847;48.218;16.414;2023-05-07T09:36:40;20.20;99.90
39103;DHT22;24847;48.218;16.414;2023-05-07T09:41:46;19.90;99.90
39103;DHT22;24847;48.218;16.414;2023-05-07T09:46:54;20.70;99.90
39103;DHT22;24847;48.218;16.414;2023-05-07T09:51:58;20.10;99.90
39103;DHT22;24847;48.218;16.414;2023-05-07T09:57:02;20.90;99.90
39103;DHT22;24847;48.218;16.414;2023-05-07T10:02:07;20.00;99.90
39103;DHT22;24847;48.218;16.414;2023-05-07T10:07:13;19.20;99.90
39103;DHT22;24847;48.218;16.414;2023-05-07T10:12:15;20.30;99.90
39103;DHT22;24847;48.218;16.414;2023-05-07T10:17:20;20.30;99.90
39103;DHT22;24847;48.218;16.414;2023-05-07T10:22:22;20.50;99.90
39103;DHT22;24847;48.218;16.414;2023-05-07T10:27:27;19.90;99.90
39103;DHT22;24847;48.218;16.414;2023-05-07T10:32:39;20.60;99.90
39103;DHT22;24847;48.218;16.414;2023-05-07T10:37:43;20.60;99.90
39103;DHT22;24847;48.218;16.414;2023-05-07T10:42:56;20.00;99.90
39103;DHT22;24847;48.218;16.414;2023-05-07T10:48:09;20.00;99.90
39103;DHT22;24847;48.218;16.414;2023-05-07T10:53:23;19.70;99.90
39103;DHT22;24847;48.218;16.414;2023-05-07T10:58:28;19.50;99.90
39103;DHT22;24847;48.218;16.414;2023-05-07T11:03:31;19.90;99.90
39103;DHT22;24847;48.218;16.414;2023-05-07T11:08:55;19.60;99.90
39103;DHT22;24847;48.218;16.414;2023-05-07T11:13:57;19.80;99.90
39103;DHT22;24847;48.218;16.414;2023-05-07T11:19:01;19.60;99.90
39103;DHT22;24847;48.218;16.414;2023-05-07T11:24:04;19.50;99.90
39103;DHT22;24847;48.218;16.414;2023-05-07T11:29:10;19.70;99.90
39103;DHT22;24847;48.218;16.414;2023-05-07T11:34:15;19.70;99.90
39103;DHT22;24847;48.218;16.414;2023-05-07T11:39:27;19.60;99.90
39103;DHT22;24847;48.218;16.414;2023-05-07T11:44:44;20.20;99.90
39103;DHT22;24847;48.218;16.414;2023-05-07T11:49:51;19.90;99.90
39103;DHT22;24847;48.218;16.414;2023-05-07T11:54:54;19.70;99.90
39103;DHT22;24847;48.218;16.414;2023-05-07T11:59:58;19.70;99.90
39103;DHT22;24847;48.218;16.414;2023-05-07T12:05:04;19.90;99.90
39103;DHT22;24847;48.218;16.414;2023-05-07T12:10:07;20.00;99.90
39103;DHT22;24847;48.218;16.414;2023-05-07T12:15:10;20.20;99.90
39103;DHT22;24847;48.218;16.414;2023-05-07T12:20:17;19.70;99.90
39103;DHT22;24847;48.218;16.414;2023-05-07T12:25:19;19.70;99.90
39103;DHT22;24847;48.218;16.414;2023-05-07T12:30:21;19.40;99.90
39103;DHT22;24847;48.218;16.414;2023-05-07T12:35:28;19.60;99.90
39103;DHT22;24847;48.218;16.414;2023-05-07T12:40:38;19.70;99.90
39103;DHT22;24847;48.218;16.414;2023-05-07T12:45:41;19.60;99.90
39103;DHT22;24847;48.218;16.414;2023-05-07T12:50:45;19.40;99.90
39103;DHT22;24847;48.218;16.414;2023-05-07T12:55:52;19.70;99.90
39103;DHT22;24847;48.218;16.414;2023-05-07T13:00:56;19.70;99.90
39103;DHT22;24847;48.218;16.414;2023-05-07T13:06:03;19.30;99.90
39103;DHT22;24847;48.218;16.414;2023-05-07T13:11:08;19.70;99.90
39103;DHT22;24847;48.218;16.414;2023-05-07T13:16:11;19.70;99.90
39103;DHT22;24847;48.218;16.414;2023-05-07T13:21:14;19.60;99.90
39103;DHT22;24847;48.218;16.414;2023-05-07T13:26:17;19.60;99.90
39103;DHT22;24847;48.218;16.414;2023-05-07T13:31:19;19.70;99.90
39103;DHT22;24847;48.218;16.414;2023-05-07T13:36:23;19.40;99.90
39103;DHT22;24847;48.218;16.414;2023-05-07T13:41:25;19.40;99.90
39103;DHT22;24847;48.218;16.414;2023-05-07T13:46:28;19.30;99.90
39103;DHT22;24847;48.218;16.414;2023-05-07T13:51:31;19.40;99.90
39103;DHT22;24847;48.218;16.414;2023-05-07T13:56:34;19.50;99.90
39103;DHT22;24847;48.218;16.414;2023-05-07T14:01:36;19.40;99.90
39103;DHT22;24847;48.218;16.414;2023-05-07T14:06:40;19.30;99.90
39103;DHT22;24847;48.218;16.414;2023-05-07T14:11:42;19.10;99.90
39103;DHT22;24847;48.218;16.414;2023-05-07T14:16:45;19.40;99.90
39103;DHT22;24847;48.218;16.414;2023-05-07T14:21:48;19.30;99.90
39103;DHT22;24847;48.218;16.414;2023-05-07T14:26:50;19.10;99.90
39103;DHT22;24847;48.218;16.414;2023-05-07T14:31:53;19.00;99.90
39103;DHT22;24847;48.218;16.414;2023-05-07T14:36:57;18.60;99.90
39103;DHT22;24847;48.218;16.414;2023-05-07T14:41:59;18.50;99.90
39103;DHT22;24847;48.218;16.414;2023-05-07T14:47:02;18.80;99.90
39103;DHT22;24847;48.218;16.414;2023-05-07T14:52:05;18.70;99.90
39103;DHT22;24847;48.218;16.414;2023-05-07T14:57:10;18.70;99.90
39103;DHT22;24847;48.218;16.414;2023-05-07T15:02:14;18.40;99.90
39103;DHT22;24847;48.218;16.414;2023-05-07T15:07:18;18.40;99.90
39103;DHT22;24847;48.218;16.414;2023-05-07T15:12:20;18.50;99.90
39103;DHT22;24847;48.218;16.414;2023-05-07T15:17:22;18.40;99.90
39103;DHT22;24847;48.218;16.414;2023-05-07T15:22:26;18.40;99.90
39103;DHT22;24847;48.218;16.414;2023-05-07T15:27:29;18.50;99.90
39103;DHT22;24847;48.218;16.414;2023-05-07T15:32:31;18.30;99.90
39103;DHT22;24847;48.218;16.414;2023-05-07T15:37:34;18.30;99.90
39103;DHT22;24847;48.218;16.414;2023-05-07T15:42:37;18.30;99.90
39103;DHT22;24847;48.218;16.414;2023-05-07T15:47:39;18.20;99.90
39103;DHT22;24847;48.218;16.414;2023-05-07T15:52:45;17.80;99.90
39103;DHT22;24847;48.218;16.414;2023-05-07T15:57:48;17.80;99.90
39103;DHT22;24847;48.218;16.414;2023-05-07T16:02:50;17.80;99.90
39103;DHT22;24847;48.218;16.414;2023-05-07T16:07:53;17.40;99.90
39103;DHT22;24847;48.218;16.414;2023-05-07T16:12:57;17.40;99.90
39103;DHT22;24847;48.218;16.414;2023-05-07T16:17:59;17.30;99.90
39103;DHT22;24847;48.218;16.414;2023-05-07T16:23:03;17.30;99.90
39103;DHT22;24847;48.218;16.414;2023-05-07T16:28:06;17.10;99.90
39103;DHT22;24847;48.218;16.414;2023-05-07T16:33:08;17.00;99.90
39103;DHT22;24847;48.218;16.414;2023-05-07T16:38:12;16.90;99.90
39103;DHT22;24847;48.218;16.414;2023-05-07T16:43:14;16.80;99.90
39103;DHT22;24847;48.218;16.414;2023-05-07T16:48:16;16.70;99.90
39103;DHT22;24847;48.218;16.414;2023-05-07T16:53:20;16.30;99.90
39103;DHT22;24847;48.218;16.414;2023-05-07T16:58:22;16.20;99.90
39103;DHT22;24847;48.218;16.414;2023-05-07T17:03:24;15.90;99.90
39103;DHT22;24847;48.218;16.414;2023-05-07T17:08:28;16.00;99.90
39103;DHT22;24847;48.218;16.414;2023-05-07T17:13:30;16.20;99.90
39103;DHT22;24847;48.218;16.414;2023-05-07T17:18:32;15.90;99.90
39103;DHT22;24847;48.218;16.414;2023-05-07T17:23:36;15.70;99.90
39103;DHT22;24847;48.218;16.414;2023-05-07T17:28:39;15.20;99.90
39103;DHT22;24847;48.218;16.414;2023-05-07T17:33:41;15.30;99.90
39103;DHT22;24847;48.218;16.414;2023-05-07T17:38:45;15.20;99.90
39103;DHT22;24847;48.218;16.414;2023-05-07T17:43:48;14.90;99.90
39103;DHT22;24847;48.218;16.414;2023-05-07T17:48:51;14.80;99.90
39103;DHT22;24847;48.218;16.414;2023-05-07T17:53:54;14.80;99.90
39103;DHT22;24847;48.218;16.414;2023-05-07T17:58:57;14.80;99.90
39103;DHT22;24847;48.218;16.414;2023-05-07T18:03:59;14.70;99.90
39103;DHT22;24847;48.218;16.414;2023-05-07T18:09:04;14.60;99.90
39103;DHT22;24847;48.218;16.414;2023-05-07T18:14:06;14.30;99.90
39103;DHT22;24847;48.218;16.414;2023-05-07T18:19:09;14.20;99.90
39103;DHT22;24847;48.218;16.414;2023-05-07T18:24:13;14.00;99.90
39103;DHT22;24847;48.218;16.414;2023-05-07T18:29:15;13.90;99.90
39103;DHT22;24847;48.218;16.414;2023-05-07T18:34:18;13.80;99.90
39103;DHT22;24847;48.218;16.414;2023-05-07T18:39:22;13.50;99.90
39103;DHT22;24847;48.218;16.414;2023-05-07T18:44:24;13.90;99.90
39103;DHT22;24847;48.218;16.414;2023-05-07T18:49:26;13.80;99.90
39103;DHT22;24847;48.218;16.414;2023-05-07T18:54:30;13.40;99.90
39103;DHT22;24847;48.218;16.414;2023-05-07T18:59:33;13.60;99.90
39103;DHT22;24847;48.218;16.414;2023-05-07T19:04:36;13.20;99.90
39103;DHT22;24847;48.218;16.414;2023-05-07T19:09:40;13.20;99.90
39103;DHT22;24847;48.218;16.414;2023-05-07T19:14:43;13.00;99.90
39103;DHT22;24847;48.218;16.414;2023-05-07T19:19:46;13.30;99.90
39103;DHT22;24847;48.218;16.414;2023-05-07T19:24:50;12.80;99.90
39103;DHT22;24847;48.218;16.414;2023-05-07T19:29:52;12.80;99.90
39103;DHT22;24847;48.218;16.414;2023-05-07T19:34:54;13.00;99.90
39103;DHT22;24847;48.218;16.414;2023-05-07T19:39:58;13.10;99.90
39103;DHT22;24847;48.218;16.414;2023-05-07T19:45:05;12.80;99.90
39103;DHT22;24847;48.218;16.414;2023-05-07T19:50:09;12.50;99.90
39103;DHT22;24847;48.218;16.414;2023-05-07T19:55:13;12.00;99.90
39103;DHT22;24847;48.218;16.414;2023-05-07T20:00:16;12.00;99.90
39103;DHT22;24847;48.218;16.414;2023-05-07T20:05:20;12.10;99.90
39103;DHT22;24847;48.218;16.414;2023-05-07T20:10:25;11.90;99.90
39103;DHT22;24847;48.218;16.414;2023-05-07T20:15:27;11.90;99.90
39103;DHT22;24847;48.218;16.414;2023-05-07T20:20:30;11.90;99.90
39103;DHT22;24847;48.218;16.414;2023-05-07T20:25:34;11.80;99.90
39103;DHT22;24847;48.218;16.414;2023-05-07T20:30:36;11.70;99.90
39103;DHT22;24847;48.218;16.414;2023-05-07T20:35:39;11.30;99.90
39103;DHT22;24847;48.218;16.414;2023-05-07T20:40:44;11.40;99.90
39103;DHT22;24847;48.218;16.414;2023-05-07T20:45:46;11.30;99.90
39103;DHT22;24847;48.218;16.414;2023-05-07T20:50:49;11.50;99.90
39103;DHT22;24847;48.218;16.414;2023-05-07T20:55:52;11.00;99.90
39103;DHT22;24847;48.218;16.414;2023-05-07T21:00:55;11.30;99.90
39103;DHT22;24847;48.218;16.414;2023-05-07T21:05:57;11.00;99.90
39103;DHT22;24847;48.218;16.414;2023-05-07T21:11:01;11.40;99.90
39103;DHT22;24847;48.218;16.414;2023-05-07T21:16:05;10.90;99.90
39103;DHT22;24847;48.218;16.414;2023-05-07T21:21:08;10.60;99.90
39103;DHT22;24847;48.218;16.414;2023-05-07T21:26:16;10.90;99.90
39103;DHT22;24847;48.218;16.414;2023-05-07T21:31:19;10.90;99.90
39103;DHT22;24847;48.218;16.414;2023-05-07T21:36:21;11.00;99.90
39103;DHT22;24847;48.218;16.414;2023-05-07T21:41:25;10.90;99.90
39103;DHT22;24847;48.218;16.414;2023-05-07T21:46:27;10.50;99.90
39103;DHT22;24847;48.218;16.414;2023-05-07T21:51:31;10.80;99.90
39103;DHT22;24847;48.218;16.414;2023-05-07T21:56:36;10.60;99.90
39103;DHT22;24847;48.218;16.414;2023-05-07T22:01:38;10.40;99.90
39103;DHT22;24847;48.218;16.414;2023-05-07T22:06:40;10.60;99.90
39103;DHT22;24847;48.218;16.414;2023-05-07T22:11:44;10.30;99.90
39103;DHT22;24847;48.218;16.414;2023-05-07T22:16:46;10.40;99.90
39103;DHT22;24847;48.218;16.414;2023-05-07T22:21:49;10.20;99.90
39103;DHT22;24847;48.218;16.414;2023-05-07T22:26:52;10.10;99.90
39103;DHT22;24847;48.218;16.414;2023-05-07T22:31:55;10.30;99.90
39103;DHT22;24847;48.218;16.414;2023-05-07T22:36:57;10.20;99.90
39103;DHT22;24847;48.218;16.414;2023-05-07T22:42:01;10.40;99.90
39103;DHT22;24847;48.218;16.414;2023-05-07T22:47:03;10.20;99.90
39103;DHT22;24847;48.218;16.414;2023-05-07T22:52:06;10.00;99.90
39103;DHT22;24847;48.218;16.414;2023-05-07T22:57:09;10.10;99.90
39103;DHT22;24847;48.218;16.414;2023-05-07T23:02:11;9.90;99.90
39103;DHT22;24847;48.218;16.414;2023-05-07T23:07:14;10.00;99.90
39103;DHT22;24847;48.218;16.414;2023-05-07T23:12:17;9.80;99.90
39103;DHT22;24847;48.218;16.414;2023-05-07T23:17:20;9.70;99.90
39103;DHT22;24847;48.218;16.414;2023-05-07T23:22:22;9.90;99.90
39103;DHT22;24847;48.218;16.414;2023-05-07T23:27:26;10.10;99.90
39103;DHT22;24847;48.218;16.414;2023-05-07T23:32:29;10.20;99.90
39103;DHT22;24847;48.218;16.414;2023-05-07T23:37:32;9.70;99.90
39103;DHT22;24847;48.218;16.414;2023-05-07T23:42:35;9.50;99.90
39103;DHT22;24847;48.218;16.414;2023-05-07T23:47:38;9.90;99.90
39103;DHT22;24847;48.218;16.414;2023-05-07T23:52:40;9.70;99.90
39103;DHT22;24847;48.218;16.414;2023-05-07T23:57:43;9.50;99.90
